»·PEaware :: WAT100 KSAN-KLAS

WAT100 :: KSAN-KLAS

FLIGHT INFORMATION

Flight Status: Arrived
Operator:
Walker Air Transport
More flights by this operator :: More flights under this callsign
Pilot: Storm W. (30855)
Aircraft: DASSAULT AVIATION FALCON 50
(FA50)
More flights by this aircraft type
Origin: KSAN San Diego Intl-Lindbergh
United States
Destination: KLAS McCarran Intl
United States
More flights between these airports :: More routes between these airports
Route: +PADRZ2 CHKNN SEBBY/N0464F390 YELAH MISEN KEPEC6
File this flight plan on PilotEdge
Remarks: RMK / SIMBRIEF
Altitude:
(Current/Filed)
38,000ft
Speed:
(Current/Filed)
466kts
Departed: 25-Aug-20 05:31 PM
Arrived: 25-Aug-20 06:25 PM
Distance/Time
Traveled:
225nm/0:54
Distance/Time
To Go:
Arrived

Flight Plot

Page will automatically refresh every two minutes.

Flight plan parsing failed; only flown route is shown


Map Options




Map Legend


Flown Route
Filed Route
Departure Airport
Arrival Airport
Navaid (VOR, NDB)
Fix

Horizontal Profiles

Position Reports

Time Latitude Longitude Heading Altitude Ground
Speed
25-Aug-20 16:49 32.732021 -117.191113 65 20ft 0kts
25-Aug-20 16:50 32.732021 -117.191113 65 20ft 0kts
25-Aug-20 16:51 32.732021 -117.191113 65 20ft 0kts
25-Aug-20 16:52 32.732021 -117.191113 65 20ft 0kts
25-Aug-20 16:53 32.732021 -117.191114 65 20ft 0kts
25-Aug-20 16:54 32.732021 -117.191114 65 20ft 0kts
25-Aug-20 16:55 32.732021 -117.191114 65 20ft 0kts
25-Aug-20 16:56 32.732021 -117.191114 65 20ft 0kts
25-Aug-20 16:57 32.732021 -117.191114 65 20ft 0kts
25-Aug-20 16:58 32.732021 -117.191114 65 20ft 0kts
25-Aug-20 16:59 32.732021 -117.191114 65 20ft 0kts
25-Aug-20 17:00 32.732021 -117.191114 65 20ft 0kts
25-Aug-20 17:01 32.732021 -117.191114 65 20ft 0kts
25-Aug-20 17:02 32.732021 -117.191114 65 20ft 0kts
25-Aug-20 17:03 32.732021 -117.191114 65 20ft 0kts
25-Aug-20 17:04 32.732021 -117.191114 65 20ft 0kts
25-Aug-20 17:05 32.732021 -117.191114 65 20ft 0kts
25-Aug-20 17:06 32.732021 -117.191114 65 20ft 0kts
25-Aug-20 17:07 32.732021 -117.191114 65 20ft 0kts
25-Aug-20 17:08 32.732021 -117.191114 65 20ft 0kts
25-Aug-20 17:09 32.732021 -117.191114 65 20ft 0kts
25-Aug-20 17:10 32.732021 -117.191114 65 20ft 0kts
25-Aug-20 17:11 32.732021 -117.191114 65 20ft 0kts
25-Aug-20 17:12 32.732021 -117.191114 65 20ft 0kts
25-Aug-20 17:13 32.732021 -117.191114 65 20ft 0kts
25-Aug-20 17:14 32.732021 -117.191114 65 20ft 0kts
25-Aug-20 17:15 32.732021 -117.191113 65 20ft 0kts
25-Aug-20 17:16 32.732021 -117.191113 65 20ft 0kts
25-Aug-20 17:17 32.732021 -117.191113 65 20ft 0kts
25-Aug-20 17:18 32.732021 -117.191113 65 20ft 0kts
25-Aug-20 17:19 32.732021 -117.191113 65 20ft 0kts
25-Aug-20 17:20 32.732021 -117.191113 65 20ft 0kts
25-Aug-20 17:21 32.732064 -117.191000 65 20ft 2kts
25-Aug-20 17:22 32.732207 -117.190695 49 20ft 0kts
25-Aug-20 17:23 32.732324 -117.188871 106 20ft 12kts
25-Aug-20 17:24 32.731080 -117.183735 106 20ft 15kts
25-Aug-20 17:25 32.730056 -117.179515 106 21ft 10kts
25-Aug-20 17:26 32.729732 -117.178172 106 21ft 0kts
25-Aug-20 17:27 32.729497 -117.177217 102 22ft 8kts
25-Aug-20 17:28 32.729517 -117.176674 73 22ft 0kts
25-Aug-20 17:29 32.729518 -117.176672 73 22ft 0kts
25-Aug-20 17:30 32.733108 -117.187666 287 29ft 131kts
25-Aug-20 17:31 32.747540 -117.236616 299 2702ft 173kts
25-Aug-20 17:32 32.768804 -117.282950 296 6310ft 149kts
25-Aug-20 17:33 32.797134 -117.334892 304 8888ft 213kts
25-Aug-20 17:34 32.839761 -117.394883 307 11986ft 264kts
25-Aug-20 17:35 32.890633 -117.466032 307 15062ft 302kts
25-Aug-20 17:36 32.946903 -117.546146 304 18021ft 328kts
25-Aug-20 17:37 33.002812 -117.634538 304 20943ft 341kts
25-Aug-20 17:38 33.061113 -117.723772 308 23668ft 348kts
25-Aug-20 17:39 33.135457 -117.802595 316 25699ft 367kts
25-Aug-20 17:40 33.213990 -117.882254 317 27693ft 375kts
25-Aug-20 17:41 33.295087 -117.960916 317 29679ft 376kts
25-Aug-20 17:42 33.375958 -118.039971 316 31359ft 380kts
25-Aug-20 17:43 33.458858 -118.121283 316 32570ft 393kts
25-Aug-20 17:44 33.544451 -118.205432 316 33780ft 402kts
25-Aug-20 17:45 33.642310 -118.272818 331 34987ft 413kts
25-Aug-20 17:46 33.755840 -118.285272 17 36229ft 427kts
25-Aug-20 17:47 33.844123 -118.193378 55 36882ft 441kts
25-Aug-20 17:48 33.917409 -118.068975 55 36880ft 468kts
25-Aug-20 17:49 33.994382 -117.938428 55 36874ft 488kts
25-Aug-20 17:50 34.074058 -117.803095 55 36869ft 501kts
25-Aug-20 17:51 34.160317 -117.670741 50 36903ft 501kts
25-Aug-20 17:52 34.249782 -117.542109 50 36960ft 498kts
25-Aug-20 17:53 34.337614 -117.413298 50 36965ft 497kts
25-Aug-20 17:54 34.425128 -117.284186 51 36960ft 493kts
25-Aug-20 17:55 34.511175 -117.156775 51 36961ft 488kts
25-Aug-20 17:56 34.596572 -117.029869 51 36977ft 484kts
25-Aug-20 17:57 34.681277 -116.903537 51 37002ft 481kts
25-Aug-20 17:58 34.765312 -116.777754 51 36979ft 481kts
25-Aug-20 17:59 34.851349 -116.653093 45 36897ft 482kts
25-Aug-20 18:00 34.953486 -116.548306 38 36161ft 482kts
25-Aug-20 18:01 35.056774 -116.447887 38 33187ft 470kts
25-Aug-20 18:02 35.148555 -116.345197 46 30195ft 430kts
25-Aug-20 18:03 35.231467 -116.241855 46 27379ft 423kts
25-Aug-20 18:04 35.312451 -116.140077 46 24571ft 414kts
25-Aug-20 18:05 35.391587 -116.040280 46 21764ft 404kts
25-Aug-20 18:06 35.468300 -115.943252 46 19117ft 391kts
25-Aug-20 18:07 35.540580 -115.851580 46 16804ft 358kts
25-Aug-20 18:08 35.608156 -115.765634 45 14815ft 344kts
25-Aug-20 18:10 35.671630 -115.684709 45 13036ft 318kts
25-Aug-20 18:11 35.732062 -115.607504 45 13041ft 316kts
25-Aug-20 18:12 35.812876 -115.572209 0 13042ft 321kts
25-Aug-20 18:13 35.902895 -115.567356 0 13048ft 327kts
25-Aug-20 18:14 35.983881 -115.516477 56 12399ft 355kts
25-Aug-20 18:15 36.023017 -115.400837 70 11453ft 375kts
25-Aug-20 18:16 36.024452 -115.277448 97 10767ft 320kts
25-Aug-20 18:17 36.016634 -115.174497 97 9314ft 295kts
25-Aug-20 18:18 36.009793 -115.073530 97 7426ft 295kts
25-Aug-20 18:19 36.005073 -114.973460 79 5776ft 286kts
25-Aug-20 18:20 36.062776 -114.938367 332 5523ft 217kts
25-Aug-20 18:21 36.078213 -114.995447 268 4516ft 153kts
25-Aug-20 18:22 36.073631 -115.037978 265 3628ft 121kts
25-Aug-20 18:23 36.073633 -115.077236 267 2995ft 118kts
25-Aug-20 18:24 36.073747 -115.119872 267 2297ft 121kts
25-Aug-20 18:25 36.074563 -115.145483 295 2185ft 25kts
25-Aug-20 18:25 36.074801 -115.146079 297 2185ft 0kts
25-Aug-20 18:27 36.075789 -115.146529 358 2185ft 9kts
25-Aug-20 18:28 36.078402 -115.147351 324 2185ft 2kts
25-Aug-20 18:28 36.078776 -115.151870 269 2185ft 19kts
25-Aug-20 18:30 36.079547 -115.153803 336 2185ft 15kts
25-Aug-20 18:36 36.080923 -115.153877 56 2185ft 0kts

Navigation Log

Ident Type
Flight plan parsing failed, navigation log unavailable